sensor_id;sensor_type;location;lat;lon;timestamp;pressure;altitude;pressure_sealevel;temperature;humidity
64739;BME280;51175;51.186;0.276;2023-05-22T00:00:09;101592.53;;;18.22;49.98
64739;BME280;51175;51.186;0.276;2023-05-22T00:00:42;101598.94;;;18.21;50.26
64739;BME280;51175;51.186;0.276;2023-05-22T00:01:13;101591.72;;;18.22;50.08
64739;BME280;51175;51.186;0.276;2023-05-22T00:01:45;101596.25;;;18.21;50.27
64739;BME280;51175;51.186;0.276;2023-05-22T00:02:21;101595.47;;;18.21;50.14
64739;BME280;51175;51.186;0.276;2023-05-22T00:02:51;101589.34;;;18.20;50.19
64739;BME280;51175;51.186;0.276;2023-05-22T00:03:22;101588.25;;;18.21;50.08
64739;BME280;51175;51.186;0.276;2023-05-22T00:03:53;101591.19;;;18.20;50.28
64739;BME280;51175;51.186;0.276;2023-05-22T00:04:24;101585.84;;;18.20;50.16
64739;BME280;51175;51.186;0.276;2023-05-22T00:05:02;101588.53;;;18.20;50.24
64739;BME280;51175;51.186;0.276;2023-05-22T00:05:35;101592.00;;;18.20;50.18
64739;BME280;51175;51.186;0.276;2023-05-22T00:06:08;101593.88;;;18.20;50.27
64739;BME280;51175;51.186;0.276;2023-05-22T00:06:42;101585.84;;;18.20;49.90
64739;BME280;51175;51.186;0.276;2023-05-22T00:07:13;101593.88;;;18.20;50.24
64739;BME280;51175;51.186;0.276;2023-05-22T00:07:43;101580.50;;;18.20;50.38
64739;BME280;51175;51.186;0.276;2023-05-22T00:08:15;101585.06;;;18.19;50.08
64739;BME280;51175;51.186;0.276;2023-05-22T00:08:46;101583.47;;;18.18;50.41
64739;BME280;51175;51.186;0.276;2023-05-22T00:09:19;101586.94;;;18.19;50.14
64739;BME280;51175;51.186;0.276;2023-05-22T00:09:56;101576.53;;;18.17;50.37
64739;BME280;51175;51.186;0.276;2023-05-22T00:10:26;101582.69;;;18.18;50.09
64739;BME280;51175;51.186;0.276;2023-05-22T00:10:57;101580.28;;;18.16;50.44
64739;BME280;51175;51.186;0.276;2023-05-22T00:11:28;101589.09;;;18.17;50.20
64739;BME280;51175;51.186;0.276;2023-05-22T00:11:58;101588.31;;;18.16;50.39
64739;BME280;51175;51.186;0.276;2023-05-22T00:12:29;101579.50;;;18.16;49.91
64739;BME280;51175;51.186;0.276;2023-05-22T00:12:59;101584.84;;;18.16;50.11
64739;BME280;51175;51.186;0.276;2023-05-22T00:13:30;101587.50;;;18.16;50.42
64739;BME280;51175;51.186;0.276;2023-05-22T00:14:01;101580.59;;;18.15;50.26
64739;BME280;51175;51.186;0.276;2023-05-22T00:14:31;101588.59;;;18.15;50.41
64739;BME280;51175;51.186;0.276;2023-05-22T00:15:02;101578.97;;;18.14;50.16
64739;BME280;51175;51.186;0.276;2023-05-22T00:15:33;101573.63;;;18.14;50.49
64739;BME280;51175;51.186;0.276;2023-05-22T00:16:04;101581.66;;;18.14;50.39
64739;BME280;51175;51.186;0.276;2023-05-22T00:16:35;101590.47;;;18.14;50.32
64739;BME280;51175;51.186;0.276;2023-05-22T00:17:05;101581.66;;;18.14;50.24
64739;BME280;51175;51.186;0.276;2023-05-22T00:17:36;101581.66;;;18.14;50.44
64739;BME280;51175;51.186;0.276;2023-05-22T00:18:06;101588.88;;;18.13;50.59
64739;BME280;51175;51.186;0.276;2023-05-22T00:18:37;101587.00;;;18.14;50.45
64739;BME280;51175;51.186;0.276;2023-05-22T00:19:11;101587.28;;;18.12;50.38
64739;BME280;51175;51.186;0.276;2023-05-22T00:19:45;101588.06;;;18.13;50.60
64739;BME280;51175;51.186;0.276;2023-05-22T00:20:20;101586.50;;;18.11;50.48
64739;BME280;51175;51.186;0.276;2023-05-22T00:20:51;101586.50;;;18.11;50.53
64739;BME280;51175;51.186;0.276;2023-05-22T00:21:23;101585.66;;;18.11;50.56
64739;BME280;51175;51.186;0.276;2023-05-22T00:21:53;101587.53;;;18.10;50.50
64739;BME280;51175;51.186;0.276;2023-05-22T00:22:24;101580.31;;;18.11;50.45
64739;BME280;51175;51.186;0.276;2023-05-22T00:22:57;101587.53;;;18.10;50.53
64739;BME280;51175;51.186;0.276;2023-05-22T00:23:30;101582.19;;;18.10;50.25
64739;BME280;51175;51.186;0.276;2023-05-22T00:24:00;101584.84;;;18.10;50.48
64739;BME280;51175;51.186;0.276;2023-05-22T00:24:31;101584.06;;;18.10;50.47
64739;BME280;51175;51.186;0.276;2023-05-22T00:25:02;101578.72;;;18.10;50.65
64739;BME280;51175;51.186;0.276;2023-05-22T00:25:33;101585.13;;;18.09;50.65
64739;BME280;51175;51.186;0.276;2023-05-22T00:26:03;101585.94;;;18.09;50.60
64739;BME280;51175;51.186;0.276;2023-05-22T00:26:34;101582.47;;;18.09;50.72
64739;BME280;51175;51.186;0.276;2023-05-22T00:27:04;101587.03;;;18.08;50.25
64739;BME280;51175;51.186;0.276;2023-05-22T00:27:35;101582.47;;;18.09;50.48
64739;BME280;51175;51.186;0.276;2023-05-22T00:28:05;101580.88;;;18.08;50.51
64739;BME280;51175;51.186;0.276;2023-05-22T00:28:36;101587.03;;;18.08;50.50
64739;BME280;51175;51.186;0.276;2023-05-22T00:29:06;101591.56;;;18.08;50.61
64739;BME280;51175;51.186;0.276;2023-05-22T00:29:43;101586.22;;;18.08;50.48
64739;BME280;51175;51.186;0.276;2023-05-22T00:30:13;101587.31;;;18.07;50.69
64739;BME280;51175;51.186;0.276;2023-05-22T00:30:44;101578.50;;;18.06;50.79
64739;BME280;51175;51.186;0.276;2023-05-22T00:31:14;101578.50;;;18.06;50.47
64739;BME280;51175;51.186;0.276;2023-05-22T00:31:45;101585.72;;;18.06;50.58
64739;BME280;51175;51.186;0.276;2023-05-22T00:32:16;101584.94;;;18.05;50.80
64739;BME280;51175;51.186;0.276;2023-05-22T00:32:46;101582.25;;;18.05;50.89
64739;BME280;51175;51.186;0.276;2023-05-22T00:33:16;101577.97;;;18.04;50.62
64739;BME280;51175;51.186;0.276;2023-05-22T00:33:47;101588.66;;;18.04;50.51
64739;BME280;51175;51.186;0.276;2023-05-22T00:34:18;101580.66;;;18.04;50.60
64739;BME280;51175;51.186;0.276;2023-05-22T00:34:48;101584.41;;;18.03;50.66
64739;BME280;51175;51.186;0.276;2023-05-22T00:35:19;101581.72;;;18.03;50.36
64739;BME280;51175;51.186;0.276;2023-05-22T00:35:50;101580.16;;;18.02;50.75
64739;BME280;51175;51.186;0.276;2023-05-22T00:36:21;101575.59;;;18.03;50.53
64739;BME280;51175;51.186;0.276;2023-05-22T00:36:51;101579.34;;;18.02;50.50
64739;BME280;51175;51.186;0.276;2023-05-22T00:37:21;101578.53;;;18.01;50.71
64739;BME280;51175;51.186;0.276;2023-05-22T00:37:52;101578.53;;;18.01;50.52
64739;BME280;51175;51.186;0.276;2023-05-22T00:38:30;101578.81;;;17.99;50.71
64739;BME280;51175;51.186;0.276;2023-05-22T00:39:01;101580.44;;;18.01;50.45
64739;BME280;51175;51.186;0.276;2023-05-22T00:39:32;101579.91;;;17.98;50.52
64739;BME280;51175;51.186;0.276;2023-05-22T00:40:02;101584.16;;;17.99;50.53
64739;BME280;51175;51.186;0.276;2023-05-22T00:40:34;101584.16;;;17.99;50.40
64739;BME280;51175;51.186;0.276;2023-05-22T00:41:05;101588.72;;;17.99;50.64
64739;BME280;51175;51.186;0.276;2023-05-22T00:41:36;101579.09;;;17.98;50.55
64739;BME280;51175;51.186;0.276;2023-05-22T00:42:07;101580.97;;;17.97;50.66
64739;BME280;51175;51.186;0.276;2023-05-22T00:42:38;101578.31;;;17.97;50.78
64739;BME280;51175;51.186;0.276;2023-05-22T00:43:08;101585.53;;;17.97;50.59
64739;BME280;51175;51.186;0.276;2023-05-22T00:43:38;101581.78;;;17.98;50.68
64739;BME280;51175;51.186;0.276;2023-05-22T00:44:09;101579.38;;;17.96;50.58
64739;BME280;51175;51.186;0.276;2023-05-22T00:44:40;101578.59;;;17.96;50.69
64739;BME280;51175;51.186;0.276;2023-05-22T00:45:12;101585.81;;;17.95;50.78
64739;BME280;51175;51.186;0.276;2023-05-22T00:45:43;101581.25;;;17.96;50.81
64739;BME280;51175;51.186;0.276;2023-05-22T00:46:14;101577.81;;;17.95;50.55
64739;BME280;51175;51.186;0.276;2023-05-22T00:46:50;101574.31;;;17.95;50.77
64739;BME280;51175;51.186;0.276;2023-05-22T00:47:20;101576.19;;;17.94;50.42
64739;BME280;51175;51.186;0.276;2023-05-22T00:47:52;101579.66;;;17.95;50.46
64739;BME280;51175;51.186;0.276;2023-05-22T00:48:23;101575.41;;;17.94;50.60
64739;BME280;51175;51.186;0.276;2023-05-22T00:48:53;101577.28;;;17.93;50.73
64739;BME280;51175;51.186;0.276;2023-05-22T00:49:27;101571.13;;;17.93;50.81
64739;BME280;51175;51.186;0.276;2023-05-22T00:49:58;101571.13;;;17.93;50.77
64739;BME280;51175;51.186;0.276;2023-05-22T00:50:28;101575.69;;;17.92;50.72
64739;BME280;51175;51.186;0.276;2023-05-22T00:50:59;101571.41;;;17.91;50.57
64739;BME280;51175;51.186;0.276;2023-05-22T00:51:29;101573.03;;;17.92;50.76
64739;BME280;51175;51.186;0.276;2023-05-22T00:52:01;101576.75;;;17.91;50.66
64739;BME280;51175;51.186;0.276;2023-05-22T00:52:33;101576.75;;;17.91;50.75
64739;BME280;51175;51.186;0.276;2023-05-22T00:53:04;101565.28;;;17.91;50.75
64739;BME280;51175;51.186;0.276;2023-05-22T00:53:35;101569.84;;;17.90;50.75
64739;BME280;51175;51.186;0.276;2023-05-22T00:54:06;101575.97;;;17.91;50.85
64739;BME280;51175;51.186;0.276;2023-05-22T00:54:36;101561.81;;;17.90;50.66
64739;BME280;51175;51.186;0.276;2023-05-22T00:55:08;101561.81;;;17.90;50.65
64739;BME280;51175;51.186;0.276;2023-05-22T00:55:38;101558.34;;;17.90;50.58
64739;BME280;51175;51.186;0.276;2023-05-22T00:56:09;101569.03;;;17.90;50.93
64739;BME280;51175;51.186;0.276;2023-05-22T00:56:40;101570.94;;;17.89;51.04
64739;BME280;51175;51.186;0.276;2023-05-22T00:57:11;101570.94;;;17.89;50.84
64739;BME280;51175;51.186;0.276;2023-05-22T00:57:42;101568.25;;;17.89;50.93
64739;BME280;51175;51.186;0.276;2023-05-22T00:58:14;101563.69;;;17.90;50.57
64739;BME280;51175;51.186;0.276;2023-05-22T00:58:46;101568.25;;;17.89;50.97
64739;BME280;51175;51.186;0.276;2023-05-22T00:59:17;101561.28;;;17.88;50.98
64739;BME280;51175;51.186;0.276;2023-05-22T00:59:47;101562.38;;;17.87;50.76
64739;BME280;51175;51.186;0.276;2023-05-22T01:00:18;101565.84;;;17.87;50.69
64739;BME280;51175;51.186;0.276;2023-05-22T01:00:49;101563.19;;;17.87;50.97
64739;BME280;51175;51.186;0.276;2023-05-22T01:01:20;101560.53;;;17.87;50.60
64739;BME280;51175;51.186;0.276;2023-05-22T01:01:52;101561.56;;;17.86;50.89
64739;BME280;51175;51.186;0.276;2023-05-22T01:02:23;101566.63;;;17.88;50.78
64739;BME280;51175;51.186;0.276;2023-05-22T01:02:53;101565.84;;;17.87;50.75
64739;BME280;51175;51.186;0.276;2023-05-22T01:03:24;101563.19;;;17.87;50.76
64739;BME280;51175;51.186;0.276;2023-05-22T01:03:55;101560.53;;;17.87;50.62
64739;BME280;51175;51.186;0.276;2023-05-22T01:04:25;101561.56;;;17.86;50.98
64739;BME280;51175;51.186;0.276;2023-05-22T01:04:56;101565.06;;;17.87;50.66
64739;BME280;51175;51.186;0.276;2023-05-22T01:05:27;101561.56;;;17.86;50.93
64739;BME280;51175;51.186;0.276;2023-05-22T01:05:57;101566.16;;;17.86;50.74
64739;BME280;51175;51.186;0.276;2023-05-22T01:06:27;101564.25;;;17.86;50.72
64739;BME280;51175;51.186;0.276;2023-05-22T01:07:01;101557.31;;;17.85;51.00
64739;BME280;51175;51.186;0.276;2023-05-22T01:07:32;101557.31;;;17.85;50.90
64739;BME280;51175;51.186;0.276;2023-05-22T01:08:07;101557.31;;;17.85;50.92
64739;BME280;51175;51.186;0.276;2023-05-22T01:08:37;101561.84;;;17.85;50.74
64739;BME280;51175;51.186;0.276;2023-05-22T01:09:08;101556.50;;;17.85;51.03
64739;BME280;51175;51.186;0.276;2023-05-22T01:09:38;101555.75;;;17.84;50.99
64739;BME280;51175;51.186;0.276;2023-05-22T01:10:10;101552.25;;;17.84;51.00
64739;BME280;51175;51.186;0.276;2023-05-22T01:10:40;101549.59;;;17.84;50.78
64739;BME280;51175;51.186;0.276;2023-05-22T01:11:22;101554.94;;;17.84;50.94
64739;BME280;51175;51.186;0.276;2023-05-22T01:13:28;101550.16;;;17.81;51.00
64739;BME280;51175;51.186;0.276;2023-05-22T01:15:12;101546.19;;;17.78;51.05
64739;BME280;51175;51.186;0.276;2023-05-22T01:16:52;101551.28;;;17.74;51.01
64739;BME280;51175;51.186;0.276;2023-05-22T01:17:38;101547.81;;;17.74;50.95
64739;BME280;51175;51.186;0.276;2023-05-22T01:18:55;101544.66;;;17.72;51.03
64739;BME280;51175;51.186;0.276;2023-05-22T01:21:12;101548.38;;;17.71;51.45
64739;BME280;51175;51.186;0.276;2023-05-22T01:21:57;101548.66;;;17.69;51.21
64739;BME280;51175;51.186;0.276;2023-05-22T01:24:55;101554.56;;;17.66;51.42
64739;BME280;51175;51.186;0.276;2023-05-22T01:29:20;101550.06;;;17.61;51.60
64739;BME280;51175;51.186;0.276;2023-05-22T01:30:42;101543.13;;;17.60;51.72
64739;BME280;51175;51.186;0.276;2023-05-22T01:31:16;101547.97;;;17.58;51.68
64739;BME280;51175;51.186;0.276;2023-05-22T01:31:49;101543.91;;;17.61;51.58
64739;BME280;51175;51.186;0.276;2023-05-22T01:32:23;101539.66;;;17.60;51.85
64739;BME280;51175;51.186;0.276;2023-05-22T01:32:55;101547.69;;;17.60;51.45
64739;BME280;51175;51.186;0.276;2023-05-22T01:33:30;101542.34;;;17.60;51.92
64739;BME280;51175;51.186;0.276;2023-05-22T01:34:03;101549.25;;;17.61;51.78
64739;BME280;51175;51.186;0.276;2023-05-22T01:34:34;101539.66;;;17.60;51.74
64739;BME280;51175;51.186;0.276;2023-05-22T01:35:09;101545.00;;;17.60;51.80
64739;BME280;51175;51.186;0.276;2023-05-22T01:35:44;101540.47;;;17.60;51.75
64739;BME280;51175;51.186;0.276;2023-05-22T01:36:17;101540.47;;;17.60;51.59
64739;BME280;51175;51.186;0.276;2023-05-22T01:36:51;101541.53;;;17.59;51.58
64739;BME280;51175;51.186;0.276;2023-05-22T01:37:23;101542.34;;;17.60;51.70
64739;BME280;51175;51.186;0.276;2023-05-22T01:37:54;101538.84;;;17.59;51.61
64739;BME280;51175;51.186;0.276;2023-05-22T01:38:27;101538.06;;;17.59;51.42
64739;BME280;51175;51.186;0.276;2023-05-22T01:38:58;101547.41;;;17.61;51.52
64739;BME280;51175;51.186;0.276;2023-05-22T01:39:30;101545.81;;;17.60;51.49
64739;BME280;51175;51.186;0.276;2023-05-22T01:40:01;101540.47;;;17.60;51.81
64739;BME280;51175;51.186;0.276;2023-05-22T01:40:33;101537.78;;;17.60;51.55
64739;BME280;51175;51.186;0.276;2023-05-22T01:41:03;101540.47;;;17.60;51.60
64739;BME280;51175;51.186;0.276;2023-05-22T01:41:35;101534.84;;;17.62;51.43
64739;BME280;51175;51.186;0.276;2023-05-22T01:42:05;101540.19;;;17.62;51.66
64739;BME280;51175;51.186;0.276;2023-05-22T01:42:36;101542.06;;;17.61;51.61
64739;BME280;51175;51.186;0.276;2023-05-22T01:43:09;101534.03;;;17.61;51.69
64739;BME280;51175;51.186;0.276;2023-05-22T01:43:40;101535.91;;;17.61;51.91
64739;BME280;51175;51.186;0.276;2023-05-22T01:44:11;101532.47;;;17.60;51.70
64739;BME280;51175;51.186;0.276;2023-05-22T01:44:41;101535.91;;;17.61;51.44
64739;BME280;51175;51.186;0.276;2023-05-22T01:45:13;101530.56;;;17.61;51.59
64739;BME280;51175;51.186;0.276;2023-05-22T01:45:43;101532.19;;;17.62;51.92
64739;BME280;51175;51.186;0.276;2023-05-22T01:46:14;101534.84;;;17.62;51.77
64739;BME280;51175;51.186;0.276;2023-05-22T01:46:44;101530.56;;;17.61;51.78
64739;BME280;51175;51.186;0.276;2023-05-22T01:47:15;101534.84;;;17.62;51.79
64739;BME280;51175;51.186;0.276;2023-05-22T01:47:47;101528.69;;;17.61;51.73
64739;BME280;51175;51.186;0.276;2023-05-22T01:48:17;101525.22;;;17.61;51.61
64739;BME280;51175;51.186;0.276;2023-05-22T01:48:48;101526.03;;;17.61;51.59
64739;BME280;51175;51.186;0.276;2023-05-22T01:49:18;101529.78;;;17.60;51.61
64739;BME280;51175;51.186;0.276;2023-05-22T01:49:49;101526.03;;;17.61;51.95
64739;BME280;51175;51.186;0.276;2023-05-22T01:50:20;101529.78;;;17.60;51.79
64739;BME280;51175;51.186;0.276;2023-05-22T01:50:52;101529.78;;;17.60;51.54
64739;BME280;51175;51.186;0.276;2023-05-22T01:51:44;101535.13;;;17.60;51.88
64739;BME280;51175;51.186;0.276;2023-05-22T01:52:28;101531.66;;;17.60;51.75
64739;BME280;51175;51.186;0.276;2023-05-22T01:53:11;101523.91;;;17.58;51.67
64739;BME280;51175;51.186;0.276;2023-05-22T01:55:03;101531.41;;;17.56;51.82
64739;BME280;51175;51.186;0.276;2023-05-22T01:56:36;101530.91;;;17.54;51.74
64739;BME280;51175;51.186;0.276;2023-05-22T01:57:54;101531.97;;;17.53;51.92
64739;BME280;51175;51.186;0.276;2023-05-22T01:58:44;101531.19;;;17.53;51.99
64739;BME280;51175;51.186;0.276;2023-05-22T01:59:24;101531.19;;;17.53;51.64
64739;BME280;51175;51.186;0.276;2023-05-22T02:00:04;101528.00;;;17.50;51.98
64739;BME280;51175;51.186;0.276;2023-05-22T02:00:37;101534.44;;;17.49;51.80
64739;BME280;51175;51.186;0.276;2023-05-22T02:01:13;101532.53;;;17.50;52.12
64739;BME280;51175;51.186;0.276;2023-05-22T02:01:45;101532.53;;;17.50;51.74
64739;BME280;51175;51.186;0.276;2023-05-22T02:02:20;101529.09;;;17.49;52.03
64739;BME280;51175;51.186;0.276;2023-05-22T02:03:02;101529.88;;;17.50;51.77
64739;BME280;51175;51.186;0.276;2023-05-22T02:03:36;101528.28;;;17.49;51.83
64739;BME280;51175;51.186;0.276;2023-05-22T02:04:09;101533.63;;;17.49;52.02
64739;BME280;51175;51.186;0.276;2023-05-22T02:04:43;101544.03;;;17.50;52.02
64739;BME280;51175;51.186;0.276;2023-05-22T02:05:15;101537.88;;;17.50;51.94
64739;BME280;51175;51.186;0.276;2023-05-22T02:05:52;101534.44;;;17.49;52.24
64739;BME280;51175;51.186;0.276;2023-05-22T02:06:25;101532.53;;;17.50;52.19
64739;BME280;51175;51.186;0.276;2023-05-22T02:06:58;101532.81;;;17.48;51.96
64739;BME280;51175;51.186;0.276;2023-05-22T02:07:31;101538.16;;;17.48;51.92
64739;BME280;51175;51.186;0.276;2023-05-22T02:08:03;101533.63;;;17.49;52.03
64739;BME280;51175;51.186;0.276;2023-05-22T02:08:38;101533.63;;;17.49;52.18
64739;BME280;51175;51.186;0.276;2023-05-22T02:09:11;101531.75;;;17.49;51.98
64739;BME280;51175;51.186;0.276;2023-05-22T02:09:43;101537.09;;;17.49;51.89
64739;BME280;51175;51.186;0.276;2023-05-22T02:10:15;101536.28;;;17.49;52.10
64739;BME280;51175;51.186;0.276;2023-05-22T02:10:48;101532.81;;;17.48;51.88
64739;BME280;51175;51.186;0.276;2023-05-22T02:11:22;101530.44;;;17.47;52.38
64739;BME280;51175;51.186;0.276;2023-05-22T02:11:57;101530.16;;;17.48;52.16
64739;BME280;51175;51.186;0.276;2023-05-22T02:12:28;101534.72;;;17.48;51.94
64739;BME280;51175;51.186;0.276;2023-05-22T02:12:59;101531.22;;;17.47;52.12
64739;BME280;51175;51.186;0.276;2023-05-22T02:13:29;101535.47;;;17.48;52.07
64739;BME280;51175;51.186;0.276;2023-05-22T02:14:00;101528.56;;;17.47;51.97
64739;BME280;51175;51.186;0.276;2023-05-22T02:14:31;101530.44;;;17.47;52.23
64739;BME280;51175;51.186;0.276;2023-05-22T02:15:01;101533.09;;;17.47;52.00
64739;BME280;51175;51.186;0.276;2023-05-22T02:15:32;101531.22;;;17.47;52.23
64739;BME280;51175;51.186;0.276;2023-05-22T02:16:03;101531.22;;;17.47;52.22
64739;BME280;51175;51.186;0.276;2023-05-22T02:16:34;101527.75;;;17.47;52.31
64739;BME280;51175;51.186;0.276;2023-05-22T02:17:04;101525.09;;;17.47;52.14
64739;BME280;51175;51.186;0.276;2023-05-22T02:17:39;101523.22;;;17.47;52.03
64739;BME280;51175;51.186;0.276;2023-05-22T02:18:10;101523.22;;;17.47;52.21
64739;BME280;51175;51.186;0.276;2023-05-22T02:18:43;101522.41;;;17.47;52.25
64739;BME280;51175;51.186;0.276;2023-05-22T02:19:14;101521.63;;;17.46;51.93
64739;BME280;51175;51.186;0.276;2023-05-22T02:19:45;101526.69;;;17.48;52.38
64739;BME280;51175;51.186;0.276;2023-05-22T02:20:15;101518.97;;;17.46;52.29
64739;BME280;51175;51.186;0.276;2023-05-22T02:20:45;101514.41;;;17.47;52.16
64739;BME280;51175;51.186;0.276;2023-05-22T02:21:16;101529.38;;;17.48;51.94
64739;BME280;51175;51.186;0.276;2023-05-22T02:21:46;101519.75;;;17.47;52.03
64739;BME280;51175;51.186;0.276;2023-05-22T02:22:17;101523.22;;;17.47;51.94
64739;BME280;51175;51.186;0.276;2023-05-22T02:22:47;101519.75;;;17.47;52.15
64739;BME280;51175;51.186;0.276;2023-05-22T02:23:18;101520.56;;;17.47;52.47
64739;BME280;51175;51.186;0.276;2023-05-22T02:23:48;101526.69;;;17.48;52.04
64739;BME280;51175;51.186;0.276;2023-05-22T02:24:20;101524.81;;;17.48;51.98
64739;BME280;51175;51.186;0.276;2023-05-22T02:24:50;101524.03;;;17.48;52.40
64739;BME280;51175;51.186;0.276;2023-05-22T02:25:21;101515.22;;;17.47;52.05
64739;BME280;51175;51.186;0.276;2023-05-22T02:25:51;101524.03;;;17.48;52.07
64739;BME280;51175;51.186;0.276;2023-05-22T02:26:21;101525.91;;;17.47;51.96
64739;BME280;51175;51.186;0.276;2023-05-22T02:26:52;101518.97;;;17.46;52.13
64739;BME280;51175;51.186;0.276;2023-05-22T02:27:22;101517.06;;;17.47;52.13
64739;BME280;51175;51.186;0.276;2023-05-22T02:27:53;101515.22;;;17.47;51.97
64739;BME280;51175;51.186;0.276;2023-05-22T02:28:23;101522.41;;;17.47;52.02
64739;BME280;51175;51.186;0.276;2023-05-22T02:28:54;101531.22;;;17.47;52.24
64739;BME280;51175;51.186;0.276;2023-05-22T02:29:25;101517.06;;;17.47;52.13
64739;BME280;51175;51.186;0.276;2023-05-22T02:29:55;101522.41;;;17.47;52.02
64739;BME280;51175;51.186;0.276;2023-05-22T02:30:25;101524.31;;;17.46;52.14
64739;BME280;51175;51.186;0.276;2023-05-22T02:30:56;101521.63;;;17.46;52.04
64739;BME280;51175;51.186;0.276;2023-05-22T02:31:26;101520.03;;;17.45;52.38
64739;BME280;51175;51.186;0.276;2023-05-22T02:31:57;101518.16;;;17.46;52.44
64739;BME280;51175;51.186;0.276;2023-05-22T02:32:27;101522.69;;;17.45;52.10
64739;BME280;51175;51.186;0.276;2023-05-22T02:32:58;101525.38;;;17.45;52.14
64739;BME280;51175;51.186;0.276;2023-05-22T02:33:29;101521.91;;;17.45;52.13
64739;BME280;51175;51.186;0.276;2023-05-22T02:34:00;101521.91;;;17.45;52.33
64739;BME280;51175;51.186;0.276;2023-05-22T02:34:31;101512.28;;;17.44;52.17
64739;BME280;51175;51.186;0.276;2023-05-22T02:35:01;101512.28;;;17.44;52.11
64739;BME280;51175;51.186;0.276;2023-05-22T02:35:32;101523.78;;;17.44;52.34
64739;BME280;51175;51.186;0.276;2023-05-22T02:36:02;101525.66;;;17.44;52.36
64739;BME280;51175;51.186;0.276;2023-05-22T02:36:33;101520.31;;;17.44;52.19
64739;BME280;51175;51.186;0.276;2023-05-22T02:37:04;101520.31;;;17.44;52.15
64739;BME280;51175;51.186;0.276;2023-05-22T02:37:34;101523.78;;;17.44;52.43
64739;BME280;51175;51.186;0.276;2023-05-22T02:38:05;101519.53;;;17.43;52.50
64739;BME280;51175;51.186;0.276;2023-05-22T02:38:36;101523.78;;;17.44;52.29
64739;BME280;51175;51.186;0.276;2023-05-22T02:39:06;101521.13;;;17.44;52.30
64739;BME280;51175;51.186;0.276;2023-05-22T02:39:37;101520.31;;;17.44;52.22
64739;BME280;51175;51.186;0.276;2023-05-22T02:40:08;101520.31;;;17.44;52.24
64739;BME280;51175;51.186;0.276;2023-05-22T02:40:41;101521.41;;;17.43;52.21
64739;BME280;51175;51.186;0.276;2023-05-22T02:41:13;101519.81;;;17.42;52.49
64739;BME280;51175;51.186;0.276;2023-05-22T02:41:44;101517.91;;;17.42;52.01
64739;BME280;51175;51.186;0.276;2023-05-22T02:42:14;101524.06;;;17.43;52.31
64739;BME280;51175;51.186;0.276;2023-05-22T02:42:45;101517.91;;;17.42;52.48
64739;BME280;51175;51.186;0.276;2023-05-22T02:43:15;101516.06;;;17.43;52.31
64739;BME280;51175;51.186;0.276;2023-05-22T02:43:46;101517.91;;;17.42;52.60
64739;BME280;51175;51.186;0.276;2023-05-22T02:44:16;101515.25;;;17.42;52.32
64739;BME280;51175;51.186;0.276;2023-05-22T02:44:46;101517.91;;;17.42;52.51
64739;BME280;51175;51.186;0.276;2023-05-22T02:45:17;101517.41;;;17.40;52.43
64739;BME280;51175;51.186;0.276;2023-05-22T02:45:47;101513.66;;;17.41;52.34
64739;BME280;51175;51.186;0.276;2023-05-22T02:46:17;101523.25;;;17.42;52.46
64739;BME280;51175;51.186;0.276;2023-05-22T02:46:48;101515.53;;;17.41;52.44
64739;BME280;51175;51.186;0.276;2023-05-22T02:47:18;101518.19;;;17.41;52.64
64739;BME280;51175;51.186;0.276;2023-05-22T02:47:49;101515.53;;;17.41;52.18
64739;BME280;51175;51.186;0.276;2023-05-22T02:48:19;101518.19;;;17.41;52.48
64739;BME280;51175;51.186;0.276;2023-05-22T02:48:49;101520.88;;;17.41;52.61
64739;BME280;51175;51.186;0.276;2023-05-22T02:49:20;101517.41;;;17.40;52.35
64739;BME280;51175;51.186;0.276;2023-05-22T02:49:50;101519.28;;;17.40;52.69
64739;BME280;51175;51.186;0.276;2023-05-22T02:50:20;101519.28;;;17.40;52.40
64739;BME280;51175;51.186;0.276;2023-05-22T02:50:51;101513.94;;;17.40;52.40
64739;BME280;51175;51.186;0.276;2023-05-22T02:51:21;101518.47;;;17.39;52.51
64739;BME280;51175;51.186;0.276;2023-05-22T02:51:52;101523.81;;;17.39;52.72
64739;BME280;51175;51.186;0.276;2023-05-22T02:52:22;101515.03;;;17.39;52.41
64739;BME280;51175;51.186;0.276;2023-05-22T02:52:53;101523.03;;;17.39;52.35
64739;BME280;51175;51.186;0.276;2023-05-22T02:53:24;101513.41;;;17.37;52.61
64739;BME280;51175;51.186;0.276;2023-05-22T02:53:55;101517.69;;;17.39;52.50
64739;BME280;51175;51.186;0.276;2023-05-22T02:54:25;101516.91;;;17.38;52.63
64739;BME280;51175;51.186;0.276;2023-05-22T02:54:56;101518.75;;;17.37;52.36
64739;BME280;51175;51.186;0.276;2023-05-22T02:55:26;101516.09;;;17.37;52.64
64739;BME280;51175;51.186;0.276;2023-05-22T02:55:56;101518.75;;;17.37;52.47
64739;BME280;51175;51.186;0.276;2023-05-22T02:56:27;101516.09;;;17.37;52.52
64739;BME280;51175;51.186;0.276;2023-05-22T02:56:58;101519.84;;;17.36;52.43
64739;BME280;51175;51.186;0.276;2023-05-22T02:57:29;101515.31;;;17.37;52.41
64739;BME280;51175;51.186;0.276;2023-05-22T02:57:59;101515.31;;;17.37;52.32
64739;BME280;51175;51.186;0.276;2023-05-22T02:58:29;101515.31;;;17.37;52.55
64739;BME280;51175;51.186;0.276;2023-05-22T02:59:00;101517.19;;;17.36;52.54
64739;BME280;51175;51.186;0.276;2023-05-22T02:59:30;101517.97;;;17.37;53.09
64739;BME280;51175;51.186;0.276;2023-05-22T03:00:03;101509.44;;;17.35;52.40
64739;BME280;51175;51.186;0.276;2023-05-22T03:00:41;101514.78;;;17.35;52.71
64739;BME280;51175;51.186;0.276;2023-05-22T03:01:12;101513.97;;;17.34;52.51
64739;BME280;51175;51.186;0.276;2023-05-22T03:01:42;101521.22;;;17.34;52.80
64739;BME280;51175;51.186;0.276;2023-05-22T03:02:13;101516.66;;;17.34;52.51
64739;BME280;51175;51.186;0.276;2023-05-22T03:02:44;101516.66;;;17.34;52.60